createdAt,value
2018-05-02T00:01:09.261Z,9.13
2018-05-02T00:03:37.541Z,8.66
2018-05-02T00:06:05.800Z,9.08
2018-05-02T00:08:34.075Z,8.93
2018-05-02T00:11:02.335Z,9.01
2018-05-02T00:13:30.607Z,8.97
2018-05-02T00:15:59.652Z,8.65
2018-05-02T00:18:27.902Z,8.80
2018-05-02T00:20:56.494Z,8.93
2018-05-02T00:23:24.743Z,8.89
2018-05-02T00:25:53.023Z,9.04
2018-05-02T00:28:21.366Z,9.03
2018-05-02T00:30:49.756Z,8.89
2018-05-02T00:33:18.837Z,8.88
2018-05-02T00:35:47.892Z,8.79
2018-05-02T00:38:16.153Z,8.81
2018-05-02T00:40:44.416Z,8.57
2018-05-02T00:43:12.708Z,8.30
2018-05-02T00:45:40.953Z,7.90
2018-05-02T00:48:09.231Z,7.98
2018-05-02T00:50:37.493Z,8.20
2018-05-02T00:53:06.525Z,7.97
2018-05-02T00:55:34.807Z,7.71
2018-05-02T00:58:03.117Z,7.57
2018-05-02T01:00:31.374Z,7.53
2018-05-02T01:02:59.634Z,7.50
2018-05-02T01:05:27.874Z,7.97
2018-05-02T01:07:56.156Z,8.08
2018-05-02T01:10:24.406Z,7.91
2018-05-02T01:12:53.434Z,8.06
2018-05-02T01:15:21.751Z,8.03
2018-05-02T01:17:50.027Z,8.08
2018-05-02T01:20:18.380Z,8.28
2018-05-02T01:22:46.625Z,8.34
2018-05-02T01:25:14.887Z,8.43
2018-05-02T01:27:43.137Z,8.36
2018-05-02T01:30:12.170Z,8.42
2018-05-02T01:32:40.432Z,8.41
2018-05-02T01:35:09.468Z,8.30
2018-05-02T01:37:37.708Z,8.44
2018-05-02T01:40:05.989Z,8.24
2018-05-02T01:42:34.231Z,7.97
2018-05-02T01:45:03.266Z,8.30
2018-05-02T01:47:31.528Z,8.45
2018-05-02T01:49:59.791Z,8.32
2018-05-02T01:52:28.038Z,8.12
2018-05-02T01:54:56.320Z,8.16
2018-05-02T01:57:25.336Z,8.35
2018-05-02T01:59:53.604Z,8.32
2018-05-02T02:02:22.986Z,8.12
2018-05-02T02:04:52.013Z,8.22
2018-05-02T02:07:20.506Z,8.05
2018-05-02T02:09:48.781Z,7.91
2018-05-02T02:12:17.019Z,8.18
2018-05-02T02:14:46.076Z,7.54
2018-05-02T02:17:14.350Z,8.05
2018-05-02T02:19:42.664Z,8.13
2018-05-02T02:22:10.914Z,8.16
2018-05-02T02:24:39.172Z,8.24
2018-05-02T02:27:07.438Z,7.90
2018-05-02T02:29:35.740Z,7.96
2018-05-02T02:32:03.988Z,8.01
2018-05-02T02:34:32.259Z,7.91
2018-05-02T02:37:00.559Z,7.55
2018-05-02T02:39:28.814Z,7.19
2018-05-02T02:41:57.078Z,7.77
2018-05-02T02:44:25.673Z,7.97
2018-05-02T02:46:53.929Z,7.90
2018-05-02T02:49:22.163Z,8.07
2018-05-02T02:51:51.197Z,7.97
2018-05-02T02:54:19.459Z,8.08
2018-05-02T02:56:47.749Z,8.01
2018-05-02T02:59:15.987Z,8.12
2018-05-02T03:01:45.024Z,8.18
2018-05-02T03:04:13.414Z,8.13
2018-05-02T03:06:41.862Z,8.42
2018-05-02T03:09:10.115Z,8.37
2018-05-02T03:11:39.225Z,8.29
2018-05-02T03:14:07.641Z,8.27
2018-05-02T03:16:35.887Z,8.31
2018-05-02T03:19:04.152Z,8.10
2018-05-02T03:21:32.429Z,8.14
2018-05-02T03:24:00.706Z,8.10
2018-05-02T03:26:29.265Z,8.04
2018-05-02T03:28:58.307Z,8.15
2018-05-02T03:31:26.533Z,8.20
2018-05-02T03:33:55.567Z,8.17
2018-05-02T03:36:23.816Z,8.39
2018-05-02T03:38:52.083Z,8.36
2018-05-02T03:41:21.123Z,8.20
2018-05-02T03:43:49.371Z,8.38
2018-05-02T03:46:17.732Z,8.60
2018-05-02T03:48:45.983Z,8.65
2018-05-02T03:51:14.250Z,8.68
2018-05-02T03:53:42.485Z,8.69
2018-05-02T03:56:10.756Z,8.37
2018-05-02T03:58:38.995Z,8.52
2018-05-02T04:01:25.121Z,8.64
2018-05-02T04:07:18.363Z,8.53
2018-05-02T04:09:47.445Z,8.72
2018-05-02T04:12:17.604Z,8.42
2018-05-02T04:14:45.834Z,8.42
2018-05-02T04:17:14.862Z,8.76
2018-05-02T04:19:43.127Z,8.71
2018-05-02T04:22:11.394Z,8.64
2018-05-02T04:24:40.411Z,8.45
2018-05-02T04:27:08.703Z,8.40
2018-05-02T04:29:37.001Z,8.69
2018-05-02T04:32:05.208Z,8.70
2018-05-02T04:34:34.561Z,8.75
2018-05-02T04:37:02.811Z,8.45
2018-05-02T04:39:31.114Z,8.54
2018-05-02T04:41:59.362Z,8.77
2018-05-02T04:44:27.827Z,8.70
2018-05-02T04:46:56.121Z,8.76
2018-05-02T04:49:24.603Z,8.92
2018-05-02T04:51:52.833Z,9.18
2018-05-02T04:54:21.873Z,8.74
2018-05-02T04:56:50.401Z,9.01
2018-05-02T04:59:18.724Z,8.78
2018-05-02T05:01:46.994Z,8.89
2018-05-02T05:04:15.261Z,8.99
2018-05-02T05:06:43.615Z,8.93
2018-05-02T05:09:11.838Z,9.25
2018-05-02T05:11:40.391Z,9.22
2018-05-02T05:14:08.710Z,9.22
2018-05-02T05:16:38.065Z,9.33
2018-05-02T05:19:06.335Z,9.20
2018-05-02T05:21:34.621Z,9.28
2018-05-02T05:24:02.886Z,9.41
2018-05-02T05:26:31.158Z,9.09
2018-05-02T05:28:59.413Z,9.00
2018-05-02T05:31:28.479Z,9.11
2018-05-02T05:33:56.723Z,9.21
2018-05-02T05:36:25.209Z,9.20
2018-05-02T05:38:53.841Z,9.01
2018-05-02T05:41:22.188Z,8.95
2018-05-02T05:43:51.609Z,9.20
2018-05-02T05:46:19.931Z,9.40
2018-05-02T05:48:48.284Z,9.30
2018-05-02T05:51:17.360Z,9.81
2018-05-02T05:53:45.844Z,9.55
2018-05-02T05:56:14.621Z,9.63
2018-05-02T05:58:42.977Z,9.39
2018-05-02T06:01:11.462Z,9.37
2018-05-02T06:03:39.770Z,9.17
2018-05-02T06:06:08.196Z,9.66
2018-05-02T06:08:36.499Z,9.32
2018-05-02T06:11:04.847Z,9.35
2018-05-02T06:13:33.366Z,9.01
2018-05-02T06:16:01.740Z,9.26
2018-05-02T06:18:30.195Z,9.56
2018-05-02T06:20:58.566Z,9.38
2018-05-02T06:23:26.913Z,9.66
2018-05-02T06:25:55.946Z,9.94
2018-05-02T06:28:24.254Z,10.25
2018-05-02T06:30:52.827Z,10.39
2018-05-02T06:33:21.181Z,10.27
2018-05-02T06:35:49.548Z,10.24
2018-05-02T06:38:18.118Z,10.10
2018-05-02T06:40:47.313Z,10.18
2018-05-02T06:43:15.907Z,10.33
2018-05-02T06:45:44.682Z,10.31
2018-05-02T06:48:13.174Z,10.55
2018-05-02T06:50:41.799Z,10.51
2018-05-02T06:53:11.077Z,10.52
2018-05-02T06:55:39.947Z,10.46
2018-05-02T06:58:08.834Z,10.43
2018-05-02T07:00:37.110Z,10.26
2018-05-02T07:03:05.396Z,10.31
2018-05-02T07:05:33.669Z,10.44
2018-05-02T07:08:01.955Z,10.83
2018-05-02T07:10:30.282Z,11.08
2018-05-02T07:12:59.321Z,10.99
2018-05-02T07:15:32.597Z,10.72
2018-05-02T07:18:00.869Z,11.03
2018-05-02T07:20:29.160Z,11.18
2018-05-02T07:22:57.441Z,11.22
2018-05-02T07:25:25.778Z,11.44
2018-05-02T07:27:54.082Z,11.44
2018-05-02T07:30:22.381Z,11.69
2018-05-02T07:32:50.726Z,11.64
2018-05-02T07:35:18.949Z,11.57
2018-05-02T07:37:47.309Z,11.67
2018-05-02T07:40:16.382Z,11.96
2018-05-02T07:42:44.657Z,11.98
2018-05-02T07:45:12.991Z,11.98
2018-05-02T07:47:42.058Z,12.13
2018-05-02T07:50:10.313Z,12.13
2018-05-02T07:52:38.578Z,12.32
2018-05-02T07:55:06.867Z,12.43
2018-05-02T07:57:35.226Z,12.45
2018-05-02T08:00:03.491Z,12.75
2018-05-02T08:02:31.768Z,12.83
2018-05-02T08:05:00.054Z,12.93
2018-05-02T08:07:28.333Z,13.00
2018-05-02T08:09:56.614Z,13.09
2018-05-02T08:12:24.893Z,13.30
2018-05-02T08:14:53.442Z,13.31
2018-05-02T08:17:22.835Z,13.38
2018-05-02T08:19:51.380Z,13.32
2018-05-02T08:22:19.798Z,13.43
2018-05-02T08:24:48.136Z,13.18
2018-05-02T08:27:16.571Z,13.38
2018-05-02T08:29:44.930Z,13.57
2018-05-02T08:32:13.273Z,13.41
2018-05-02T08:34:47.408Z,13.50
2018-05-02T08:37:15.671Z,13.70
2018-05-02T08:39:44.013Z,13.70
2018-05-02T08:42:12.374Z,13.62
2018-05-02T08:44:40.728Z,13.79
2018-05-02T08:47:09.088Z,14.07
2018-05-02T08:49:37.483Z,13.85
2018-05-02T08:52:05.777Z,13.85
2018-05-02T08:54:34.092Z,13.82
2018-05-02T08:57:02.572Z,13.32
2018-05-02T08:59:31.648Z,13.54
2018-05-02T09:01:59.992Z,13.91
2018-05-02T09:04:28.583Z,13.58
2018-05-02T09:06:57.887Z,14.09
2018-05-02T09:09:26.282Z,14.27
2018-05-02T09:11:54.733Z,14.44
2018-05-02T09:14:23.158Z,14.52
2018-05-02T09:16:51.468Z,14.47
2018-05-02T09:19:19.776Z,14.54
2018-05-02T09:21:48.201Z,14.31
2018-05-02T09:24:16.717Z,14.38
2018-05-02T09:26:45.007Z,14.46
2018-05-02T09:29:13.308Z,14.42
2018-05-02T09:31:41.747Z,14.35
2018-05-02T09:34:10.032Z,14.43
2018-05-02T09:39:12.870Z,14.45
2018-05-02T09:41:41.944Z,14.48
2018-05-02T09:44:10.208Z,14.79
2018-05-02T09:46:38.525Z,14.79
2018-05-02T09:49:07.664Z,14.41
2018-05-02T09:51:36.060Z,14.67
2018-05-02T09:54:04.392Z,14.79
2018-05-02T09:56:32.792Z,15.26
2018-05-02T09:59:01.649Z,15.24
2018-05-02T10:01:30.730Z,15.25
2018-05-02T10:03:59.928Z,15.36
2018-05-02T10:06:28.957Z,15.28
2018-05-02T10:08:57.284Z,15.24
2018-05-02T10:11:25.568Z,15.48
2018-05-02T10:13:54.619Z,15.35
2018-05-02T10:16:23.006Z,15.43
2018-05-02T10:18:51.541Z,15.45
2018-05-02T10:21:19.886Z,15.53
2018-05-02T10:23:48.202Z,15.75
2018-05-02T10:26:16.827Z,15.94
2018-05-02T10:28:45.088Z,15.98
2018-05-02T10:31:13.369Z,15.98
2018-05-02T10:33:41.743Z,15.83
2018-05-02T10:36:10.055Z,16.01
2018-05-02T10:38:38.438Z,16.07
2018-05-02T10:41:07.581Z,16.49
2018-05-02T10:43:35.889Z,17.21
2018-05-02T10:46:04.521Z,17.02
2018-05-02T10:48:32.817Z,17.70
2018-05-02T10:51:01.103Z,17.79
2018-05-02T10:53:29.414Z,17.41
2018-05-02T10:55:57.770Z,17.30
2018-05-02T10:58:26.062Z,17.22
2018-05-02T11:00:54.398Z,17.25
2018-05-02T11:03:22.737Z,16.76
2018-05-02T11:05:51.065Z,16.87
2018-05-02T11:08:19.392Z,16.31
2018-05-02T11:10:48.455Z,16.61
2018-05-02T11:13:16.758Z,16.99
2018-05-02T11:15:46.048Z,17.51
2018-05-02T11:18:15.216Z,17.42
2018-05-02T11:20:43.518Z,17.29
2018-05-02T11:23:12.561Z,17.46
2018-05-02T11:25:40.915Z,17.19
2018-05-02T11:28:09.647Z,17.27
2018-05-02T11:30:38.074Z,17.40
2018-05-02T11:33:06.523Z,17.39
2018-05-02T11:35:34.912Z,17.48
2018-05-02T11:38:03.954Z,17.40
2018-05-02T11:40:32.422Z,17.08
2018-05-02T11:43:00.661Z,17.30
2018-05-02T11:45:29.769Z,17.53
2018-05-02T11:47:58.106Z,17.55
2018-05-02T11:50:26.551Z,17.01
2018-05-02T11:52:54.973Z,17.21
2018-05-02T11:55:23.339Z,17.39
2018-05-02T11:57:51.852Z,17.15
2018-05-02T12:00:20.193Z,17.43
2018-05-02T12:02:48.506Z,17.52
2018-05-02T12:05:17.578Z,17.65
2018-05-02T12:07:45.931Z,17.82
2018-05-02T12:10:14.273Z,18.23
2018-05-02T12:12:42.768Z,18.46
2018-05-02T12:15:11.378Z,18.25
2018-05-02T12:17:40.607Z,18.37
2018-05-02T12:20:09.636Z,18.26
2018-05-02T12:22:37.935Z,17.82
2018-05-02T12:25:06.195Z,17.94
2018-05-02T12:27:34.482Z,17.93
2018-05-02T12:30:02.884Z,18.31
2018-05-02T12:32:31.246Z,18.35
2018-05-02T12:35:00.816Z,18.20
2018-05-02T12:40:20.657Z,18.03
2018-05-02T12:42:51.929Z,18.23
2018-05-02T12:45:21.232Z,18.43
2018-05-02T12:47:53.361Z,18.39
2018-05-02T12:50:22.005Z,18.35
2018-05-02T12:52:51.104Z,18.46
2018-05-02T12:55:19.723Z,18.33
2018-05-02T12:57:49.159Z,19.35
2018-05-02T13:00:18.418Z,19.40
2018-05-02T13:02:46.792Z,19.10
2018-05-02T13:05:15.892Z,19.64
2018-05-02T13:07:45.606Z,20.03
2018-05-02T13:10:14.236Z,19.47
2018-05-02T13:12:42.559Z,19.38
2018-05-02T13:15:11.125Z,19.39
2018-05-02T13:17:39.487Z,19.22
2018-05-02T13:20:08.995Z,19.02
2018-05-02T13:22:37.333Z,18.58
2018-05-02T13:25:06.485Z,18.68
2018-05-02T13:27:35.707Z,18.49
2018-05-02T13:30:04.247Z,18.74
2018-05-02T13:32:32.883Z,18.77
2018-05-02T13:35:01.731Z,18.85
2018-05-02T13:37:30.300Z,19.01
2018-05-02T13:39:59.803Z,18.74
2018-05-02T13:42:28.145Z,19.14
2018-05-02T13:44:56.835Z,18.82
2018-05-02T13:47:25.410Z,18.62
2018-05-02T13:52:28.976Z,18.58
2018-05-02T13:54:57.507Z,18.56
2018-05-02T13:57:26.591Z,18.41
2018-05-02T13:59:55.025Z,18.26
2018-05-02T14:02:23.373Z,18.28
2018-05-02T14:04:51.788Z,18.26
2018-05-02T14:07:20.950Z,18.29
2018-05-02T14:09:49.772Z,18.44
2018-05-02T14:12:18.995Z,18.49
2018-05-02T14:14:47.388Z,18.80
2018-05-02T14:17:16.997Z,18.88
2018-05-02T14:19:45.654Z,19.06
2018-05-02T14:22:14.006Z,18.71
2018-05-02T14:24:44.076Z,18.59
2018-05-02T14:27:12.379Z,18.66
2018-05-02T14:29:40.791Z,18.47
2018-05-02T14:32:09.137Z,18.48
2018-05-02T14:34:37.895Z,18.31
2018-05-02T14:37:06.352Z,18.39
2018-05-02T14:39:34.922Z,18.50
2018-05-02T14:42:03.485Z,18.84
2018-05-02T14:44:32.727Z,18.66
2018-05-02T14:47:01.849Z,18.61
2018-05-02T14:49:30.360Z,18.76
2018-05-02T14:51:59.573Z,19.15
2018-05-02T14:54:28.554Z,19.20
2018-05-02T14:56:57.469Z,19.49
2018-05-02T14:59:26.854Z,19.76
2018-05-02T15:01:55.672Z,19.51
2018-05-02T15:04:24.293Z,19.03
2018-05-02T15:06:52.834Z,19.12
2018-05-02T15:09:22.309Z,19.03
2018-05-02T15:11:51.071Z,19.07
2018-05-02T15:14:19.647Z,19.27
2018-05-02T15:16:48.175Z,19.10
2018-05-02T15:19:16.946Z,19.17
2018-05-02T15:21:45.352Z,18.97
2018-05-02T15:24:14.003Z,18.94
2018-05-02T15:26:42.364Z,18.97
2018-05-02T15:29:11.143Z,18.99
2018-05-02T15:31:39.482Z,18.98
2018-05-02T15:34:09.031Z,18.80
2018-05-02T15:36:38.060Z,18.73
2018-05-02T15:39:07.254Z,18.63
2018-05-02T15:41:35.998Z,18.54
2018-05-02T15:44:04.345Z,18.43
2018-05-02T15:46:33.695Z,18.55
2018-05-02T15:49:02.207Z,18.38
2018-05-02T15:51:30.760Z,18.29
2018-05-02T15:53:59.748Z,18.32
2018-05-02T15:56:28.417Z,18.35
2018-05-02T15:58:56.983Z,18.18
2018-05-02T16:01:25.349Z,18.11
2018-05-02T16:03:54.118Z,18.10
2018-05-02T16:06:23.567Z,18.02
2018-05-02T16:08:52.399Z,17.95
2018-05-02T16:11:21.716Z,17.87
2018-05-02T16:13:50.317Z,17.72
2018-05-02T16:16:19.886Z,17.75
2018-05-02T16:18:48.499Z,17.69
2018-05-02T16:21:17.540Z,17.66
2018-05-02T16:23:45.996Z,17.63
2018-05-02T16:26:14.582Z,17.47
2018-05-02T16:28:43.201Z,17.42
2018-05-02T16:31:12.618Z,17.42
2018-05-02T16:33:41.006Z,17.44
2018-05-02T16:36:09.516Z,17.46
2018-05-02T16:38:37.979Z,17.35
2018-05-02T16:41:06.649Z,17.33
2018-05-02T16:43:35.147Z,17.31
2018-05-02T16:46:03.888Z,17.32
2018-05-02T16:48:32.277Z,17.38
2018-05-02T16:51:00.867Z,17.32
2018-05-02T16:53:29.523Z,17.28
2018-05-02T16:55:58.131Z,17.32
2018-05-02T16:58:28.174Z,17.25
2018-05-02T17:00:56.961Z,17.22
2018-05-02T17:03:25.970Z,17.11
2018-05-02T17:05:54.594Z,17.17
2018-05-02T17:08:23.168Z,17.19
2018-05-02T17:10:51.646Z,17.15
2018-05-02T17:13:20.885Z,17.17
2018-05-02T17:15:49.461Z,17.08
2018-05-02T17:18:18.130Z,17.02
2018-05-02T17:20:47.450Z,16.89
2018-05-02T17:23:15.999Z,16.90
2018-05-02T17:25:44.884Z,16.89
2018-05-02T17:28:13.215Z,16.89
2018-05-02T17:30:41.829Z,16.87
2018-05-02T17:33:10.392Z,16.79
2018-05-02T17:35:39.417Z,16.75
2018-05-02T17:38:07.993Z,16.78
2018-05-02T17:40:37.303Z,16.79
2018-05-02T17:43:05.746Z,16.83
2018-05-02T17:45:34.106Z,16.70
2018-05-02T17:48:07.901Z,16.70
2018-05-02T17:50:36.630Z,16.64
2018-05-02T17:53:05.647Z,16.63
2018-05-02T17:55:34.208Z,16.62
2018-05-02T17:58:03.086Z,16.63
2018-05-02T18:00:31.703Z,16.58
2018-05-02T18:03:00.624Z,16.55
2018-05-02T18:05:29.486Z,16.51
2018-05-02T18:07:58.859Z,16.48
2018-05-02T18:10:27.565Z,16.41
2018-05-02T18:12:56.050Z,16.40
2018-05-02T18:15:24.503Z,16.37
2018-05-02T18:17:52.905Z,16.33
2018-05-02T18:20:21.503Z,16.27
2018-05-02T18:22:50.029Z,16.21
2018-05-02T18:25:19.303Z,16.15
2018-05-02T18:27:48.081Z,16.15
2018-05-02T18:30:17.410Z,16.09
2018-05-02T18:32:46.728Z,16.05
2018-05-02T18:35:15.237Z,15.99
2018-05-02T18:37:43.821Z,15.97
2018-05-02T18:40:12.288Z,15.91
2018-05-02T18:42:40.835Z,15.93
2018-05-02T18:45:09.305Z,15.91
2018-05-02T18:47:38.304Z,15.91
2018-05-02T18:50:06.685Z,15.81
2018-05-02T18:52:35.229Z,15.78
2018-05-02T18:55:04.613Z,15.66
2018-05-02T18:57:33.905Z,15.53
2018-05-02T19:00:03.416Z,15.47
2018-05-02T19:02:32.366Z,15.47
2018-05-02T19:05:01.010Z,15.39
2018-05-02T19:07:30.536Z,15.20
2018-05-02T19:09:58.929Z,15.13
2018-05-02T19:12:27.308Z,15.15
2018-05-02T19:14:55.827Z,15.09
2018-05-02T19:17:24.615Z,15.16
2018-05-02T19:19:59.134Z,15.15
2018-05-02T19:22:27.422Z,15.09
2018-05-02T19:25:01.171Z,15.16
2018-05-02T19:27:34.617Z,15.14
2018-05-02T19:30:02.883Z,15.11
2018-05-02T19:32:36.764Z,15.07
2018-05-02T19:35:05.061Z,15.04
2018-05-02T19:37:33.355Z,14.95
2018-05-02T19:40:07.860Z,14.80
2018-05-02T19:42:41.719Z,14.64
2018-05-02T19:45:09.915Z,14.45
2018-05-02T19:47:38.218Z,14.38
2018-05-02T19:50:06.473Z,14.52
2018-05-02T19:52:40.463Z,14.66
2018-05-02T19:55:08.738Z,14.55
2018-05-02T19:57:37.278Z,14.32
2018-05-02T20:00:06.343Z,14.21
2018-05-02T20:05:38.865Z,14.30
2018-05-02T20:08:13.388Z,14.26
2018-05-02T20:10:47.715Z,14.22
2018-05-02T20:13:21.561Z,14.42
2018-05-02T20:15:49.839Z,14.29
2018-05-02T20:18:18.137Z,13.97
2018-05-02T20:20:46.474Z,14.08
2018-05-02T20:23:14.757Z,14.03
2018-05-02T20:25:43.031Z,14.21
2018-05-02T20:28:11.321Z,14.30
2018-05-02T20:30:39.643Z,14.19
2018-05-02T20:33:08.666Z,14.15
2018-05-02T20:35:36.979Z,14.32
2018-05-02T20:38:05.228Z,14.26
2018-05-02T20:40:33.515Z,14.39
2018-05-02T20:43:01.775Z,14.22
2018-05-02T20:45:30.087Z,14.23
2018-05-02T20:47:58.622Z,14.27
2018-05-02T20:50:26.911Z,14.32
2018-05-02T20:52:55.187Z,14.29
2018-05-02T20:55:23.508Z,14.18
2018-05-02T20:57:51.799Z,14.14
2018-05-02T21:00:20.093Z,14.18
2018-05-02T21:02:48.386Z,13.99
2018-05-02T21:05:16.686Z,14.05
2018-05-02T21:07:44.945Z,13.99
2018-05-02T21:10:13.226Z,14.03
2018-05-02T21:12:41.509Z,13.77
2018-05-02T21:15:09.929Z,13.61
2018-05-02T21:17:38.966Z,13.65
2018-05-02T21:20:07.256Z,13.64
2018-05-02T21:22:35.553Z,13.78
2018-05-02T21:25:04.604Z,13.77
2018-05-02T21:27:32.880Z,13.57
2018-05-02T21:30:01.272Z,13.66
2018-05-02T21:32:29.580Z,13.80
2018-05-02T21:34:58.603Z,13.78
2018-05-02T21:37:26.902Z,13.78
2018-05-02T21:39:55.201Z,13.80
2018-05-02T21:42:23.466Z,13.65
2018-05-02T21:44:51.740Z,13.43
2018-05-02T21:47:20.011Z,13.52
2018-05-02T21:49:48.290Z,13.26
2018-05-02T21:52:16.593Z,13.18
2018-05-02T21:54:44.850Z,13.56
2018-05-02T21:57:13.133Z,13.56
2018-05-02T21:59:41.446Z,13.54
2018-05-02T22:02:10.524Z,13.43
2018-05-02T22:04:39.559Z,13.36
2018-05-02T22:07:07.813Z,13.16
2018-05-02T22:09:36.078Z,13.24
2018-05-02T22:12:04.418Z,13.09
2018-05-02T22:14:32.712Z,13.09
2018-05-02T22:17:01.744Z,13.07
2018-05-02T22:19:30.044Z,12.94
2018-05-02T22:21:58.311Z,12.87
2018-05-02T22:24:26.599Z,13.17
2018-05-02T22:26:54.864Z,12.88
2018-05-02T22:29:23.141Z,12.94
2018-05-02T22:31:51.414Z,12.98
2018-05-02T22:34:19.672Z,12.85
2018-05-02T22:36:47.946Z,12.76
2018-05-02T22:39:16.215Z,12.78
2018-05-02T22:41:44.496Z,12.87
2018-05-02T22:44:12.776Z,12.87
2018-05-02T22:46:41.037Z,12.72
2018-05-02T22:49:10.102Z,12.70
2018-05-02T22:51:39.165Z,12.74
2018-05-02T22:54:08.766Z,12.70
2018-05-02T22:56:37.042Z,12.84
2018-05-02T22:59:05.325Z,12.76
2018-05-02T23:01:33.622Z,12.77
2018-05-02T23:04:02.670Z,12.83
2018-05-02T23:06:30.989Z,12.75
2018-05-02T23:08:59.260Z,12.60
2018-05-02T23:11:27.522Z,12.72
2018-05-02T23:13:55.817Z,12.64
2018-05-02T23:16:24.854Z,12.77
2018-05-02T23:18:53.129Z,12.54
2018-05-02T23:21:21.411Z,12.74
2018-05-02T23:23:49.711Z,12.89
2018-05-02T23:26:18.027Z,12.80
2018-05-02T23:28:47.070Z,12.77
2018-05-02T23:31:15.323Z,12.64
2018-05-02T23:33:43.614Z,12.71
2018-05-02T23:36:12.116Z,12.76
2018-05-02T23:38:40.383Z,12.68
2018-05-02T23:41:08.670Z,12.66
2018-05-02T23:43:36.941Z,12.79
2018-05-02T23:46:05.255Z,12.85
2018-05-02T23:48:33.529Z,12.75
2018-05-02T23:51:01.825Z,12.72
2018-05-02T23:53:30.081Z,12.64
2018-05-02T23:55:58.354Z,12.69
2018-05-02T23:58:26.650Z,12.72
